sensor_id;sensor_type;location;lat;lon;timestamp;P1;durP1;ratioP1;P2;durP2;ratioP2
57567;SDS011;43403;51.948;5.922;2023-11-21T00:02:11;20.35;;;11.35;;
57567;SDS011;43403;51.948;5.922;2023-11-21T00:04:37;19.30;;;11.02;;
57567;SDS011;43403;51.948;5.922;2023-11-21T00:07:04;19.40;;;11.10;;
57567;SDS011;43403;51.948;5.922;2023-11-21T00:09:32;17.83;;;10.82;;
57567;SDS011;43403;51.948;5.922;2023-11-21T00:11:58;17.23;;;9.80;;
57567;SDS011;43403;51.948;5.922;2023-11-21T00:14:25;17.90;;;10.10;;
57567;SDS011;43403;51.948;5.922;2023-11-21T00:16:51;19.88;;;11.13;;
57567;SDS011;43403;51.948;5.922;2023-11-21T00:19:18;17.75;;;10.52;;
57567;SDS011;43403;51.948;5.922;2023-11-21T00:21:44;19.45;;;11.77;;
57567;SDS011;43403;51.948;5.922;2023-11-21T00:24:11;17.90;;;10.35;;
57567;SDS011;43403;51.948;5.922;2023-11-21T00:26:40;17.67;;;11.60;;
57567;SDS011;43403;51.948;5.922;2023-11-21T00:29:06;18.02;;;10.80;;
57567;SDS011;43403;51.948;5.922;2023-11-21T00:31:37;14.93;;;9.77;;
57567;SDS011;43403;51.948;5.922;2023-11-21T00:34:03;19.42;;;10.07;;
57567;SDS011;43403;51.948;5.922;2023-11-21T00:36:31;17.38;;;9.77;;
57567;SDS011;43403;51.948;5.922;2023-11-21T00:38:58;18.15;;;10.90;;
57567;SDS011;43403;51.948;5.922;2023-11-21T00:41:25;18.95;;;11.52;;
57567;SDS011;43403;51.948;5.922;2023-11-21T00:43:53;18.38;;;11.02;;
57567;SDS011;43403;51.948;5.922;2023-11-21T00:46:21;22.40;;;11.70;;
57567;SDS011;43403;51.948;5.922;2023-11-21T00:48:47;25.60;;;13.38;;
57567;SDS011;43403;51.948;5.922;2023-11-21T00:51:14;26.23;;;13.45;;
57567;SDS011;43403;51.948;5.922;2023-11-21T00:53:40;24.48;;;13.32;;
57567;SDS011;43403;51.948;5.922;2023-11-21T00:56:07;23.85;;;13.65;;
57567;SDS011;43403;51.948;5.922;2023-11-21T00:58:34;30.52;;;14.85;;
57567;SDS011;43403;51.948;5.922;2023-11-21T01:01:01;25.10;;;14.32;;
57567;SDS011;43403;51.948;5.922;2023-11-21T01:03:29;29.13;;;14.70;;
57567;SDS011;43403;51.948;5.922;2023-11-21T01:05:56;29.40;;;14.52;;
57567;SDS011;43403;51.948;5.922;2023-11-21T01:08:22;27.63;;;14.02;;
57567;SDS011;43403;51.948;5.922;2023-11-21T01:10:50;23.83;;;12.90;;
57567;SDS011;43403;51.948;5.922;2023-11-21T01:13:16;20.98;;;11.93;;
57567;SDS011;43403;51.948;5.922;2023-11-21T01:15:43;21.02;;;11.35;;
57567;SDS011;43403;51.948;5.922;2023-11-21T01:18:09;21.70;;;12.32;;
57567;SDS011;43403;51.948;5.922;2023-11-21T01:20:35;22.05;;;11.15;;
57567;SDS011;43403;51.948;5.922;2023-11-21T01:23:02;25.65;;;14.07;;
57567;SDS011;43403;51.948;5.922;2023-11-21T01:25:28;26.15;;;13.65;;
57567;SDS011;43403;51.948;5.922;2023-11-21T01:27:55;24.55;;;12.98;;
57567;SDS011;43403;51.948;5.922;2023-11-21T01:30:22;28.52;;;14.63;;
57567;SDS011;43403;51.948;5.922;2023-11-21T01:32:48;35.40;;;15.57;;
57567;SDS011;43403;51.948;5.922;2023-11-21T01:35:15;28.65;;;14.88;;
57567;SDS011;43403;51.948;5.922;2023-11-21T01:37:41;28.58;;;15.50;;
57567;SDS011;43403;51.948;5.922;2023-11-21T01:40:08;27.08;;;15.70;;
57567;SDS011;43403;51.948;5.922;2023-11-21T01:42:40;29.83;;;14.98;;
57567;SDS011;43403;51.948;5.922;2023-11-21T01:45:06;27.50;;;14.18;;
57567;SDS011;43403;51.948;5.922;2023-11-21T01:47:33;32.45;;;15.30;;
57567;SDS011;43403;51.948;5.922;2023-11-21T01:50:00;27.63;;;14.52;;
57567;SDS011;43403;51.948;5.922;2023-11-21T01:52:27;27.40;;;15.75;;
57567;SDS011;43403;51.948;5.922;2023-11-21T01:54:53;25.00;;;14.00;;
57567;SDS011;43403;51.948;5.922;2023-11-21T01:57:20;25.02;;;13.75;;
57567;SDS011;43403;51.948;5.922;2023-11-21T01:59:47;24.90;;;14.60;;
57567;SDS011;43403;51.948;5.922;2023-11-21T02:02:14;24.97;;;15.53;;
57567;SDS011;43403;51.948;5.922;2023-11-21T02:04:42;25.02;;;12.80;;
57567;SDS011;43403;51.948;5.922;2023-11-21T02:07:08;25.63;;;15.10;;
57567;SDS011;43403;51.948;5.922;2023-11-21T02:09:34;24.02;;;13.25;;
57567;SDS011;43403;51.948;5.922;2023-11-21T02:12:04;28.10;;;14.43;;
57567;SDS011;43403;51.948;5.922;2023-11-21T02:14:31;28.38;;;14.75;;
57567;SDS011;43403;51.948;5.922;2023-11-21T02:16:57;22.58;;;13.70;;
57567;SDS011;43403;51.948;5.922;2023-11-21T02:19:24;23.88;;;14.40;;
57567;SDS011;43403;51.948;5.922;2023-11-21T02:21:54;22.85;;;13.27;;
57567;SDS011;43403;51.948;5.922;2023-11-21T02:24:22;30.85;;;13.25;;
57567;SDS011;43403;51.948;5.922;2023-11-21T02:26:49;31.95;;;14.77;;
57567;SDS011;43403;51.948;5.922;2023-11-21T02:29:18;25.80;;;13.52;;
57567;SDS011;43403;51.948;5.922;2023-11-21T02:31:45;25.27;;;13.73;;
57567;SDS011;43403;51.948;5.922;2023-11-21T02:34:15;25.27;;;13.15;;
57567;SDS011;43403;51.948;5.922;2023-11-21T02:36:42;26.02;;;12.80;;
57567;SDS011;43403;51.948;5.922;2023-11-21T02:39:09;27.63;;;14.73;;
57567;SDS011;43403;51.948;5.922;2023-11-21T02:41:36;27.23;;;14.25;;
57567;SDS011;43403;51.948;5.922;2023-11-21T02:44:02;27.40;;;14.85;;
57567;SDS011;43403;51.948;5.922;2023-11-21T02:46:29;34.60;;;14.98;;
57567;SDS011;43403;51.948;5.922;2023-11-21T02:48:55;33.22;;;15.75;;
57567;SDS011;43403;51.948;5.922;2023-11-21T02:51:22;33.40;;;17.23;;
57567;SDS011;43403;51.948;5.922;2023-11-21T02:53:49;45.15;;;18.23;;
57567;SDS011;43403;51.948;5.922;2023-11-21T02:56:17;39.97;;;17.85;;
57567;SDS011;43403;51.948;5.922;2023-11-21T02:58:43;46.30;;;16.67;;
57567;SDS011;43403;51.948;5.922;2023-11-21T03:01:10;33.45;;;16.35;;
57567;SDS011;43403;51.948;5.922;2023-11-21T03:03:37;37.78;;;17.13;;
57567;SDS011;43403;51.948;5.922;2023-11-21T03:06:06;40.95;;;17.13;;
57567;SDS011;43403;51.948;5.922;2023-11-21T03:08:33;32.08;;;15.95;;
57567;SDS011;43403;51.948;5.922;2023-11-21T03:10:59;43.30;;;16.27;;
57567;SDS011;43403;51.948;5.922;2023-11-21T03:13:25;34.33;;;16.08;;
57567;SDS011;43403;51.948;5.922;2023-11-21T03:15:52;38.00;;;16.38;;
57567;SDS011;43403;51.948;5.922;2023-11-21T03:18:18;43.05;;;17.42;;
57567;SDS011;43403;51.948;5.922;2023-11-21T03:20:44;40.88;;;17.45;;
57567;SDS011;43403;51.948;5.922;2023-11-21T03:23:14;43.67;;;17.70;;
57567;SDS011;43403;51.948;5.922;2023-11-21T03:25:41;69.50;;;18.00;;
57567;SDS011;43403;51.948;5.922;2023-11-21T03:28:08;40.50;;;17.55;;
57567;SDS011;43403;51.948;5.922;2023-11-21T03:30:34;45.47;;;17.42;;
57567;SDS011;43403;51.948;5.922;2023-11-21T03:33:01;47.67;;;17.92;;
57567;SDS011;43403;51.948;5.922;2023-11-21T03:35:27;62.33;;;17.48;;
57567;SDS011;43403;51.948;5.922;2023-11-21T03:37:54;48.47;;;17.17;;
57567;SDS011;43403;51.948;5.922;2023-11-21T03:40:20;45.08;;;17.60;;
57567;SDS011;43403;51.948;5.922;2023-11-21T03:42:47;47.17;;;17.67;;
57567;SDS011;43403;51.948;5.922;2023-11-21T03:45:13;43.38;;;17.30;;
57567;SDS011;43403;51.948;5.922;2023-11-21T03:47:41;44.75;;;16.70;;
57567;SDS011;43403;51.948;5.922;2023-11-21T03:50:07;49.30;;;17.35;;
57567;SDS011;43403;51.948;5.922;2023-11-21T03:52:35;38.78;;;15.82;;
57567;SDS011;43403;51.948;5.922;2023-11-21T03:55:01;50.05;;;17.55;;
57567;SDS011;43403;51.948;5.922;2023-11-21T03:57:28;38.03;;;15.75;;
57567;SDS011;43403;51.948;5.922;2023-11-21T03:59:55;37.65;;;15.52;;
57567;SDS011;43403;51.948;5.922;2023-11-21T04:02:21;36.90;;;15.40;;
57567;SDS011;43403;51.948;5.922;2023-11-21T04:04:47;32.65;;;16.73;;
57567;SDS011;43403;51.948;5.922;2023-11-21T04:07:14;36.05;;;16.67;;
57567;SDS011;43403;51.948;5.922;2023-11-21T04:09:40;30.77;;;16.02;;
57567;SDS011;43403;51.948;5.922;2023-11-21T04:12:07;25.52;;;14.45;;
57567;SDS011;43403;51.948;5.922;2023-11-21T04:14:35;38.42;;;15.25;;
57567;SDS011;43403;51.948;5.922;2023-11-21T04:17:02;38.05;;;14.52;;
57567;SDS011;43403;51.948;5.922;2023-11-21T04:19:30;33.17;;;15.93;;
57567;SDS011;43403;51.948;5.922;2023-11-21T04:21:56;30.38;;;15.25;;
57567;SDS011;43403;51.948;5.922;2023-11-21T04:24:23;29.75;;;15.93;;
57567;SDS011;43403;51.948;5.922;2023-11-21T04:26:49;29.73;;;16.20;;
57567;SDS011;43403;51.948;5.922;2023-11-21T04:29:15;25.90;;;14.95;;
57567;SDS011;43403;51.948;5.922;2023-11-21T04:31:42;26.13;;;14.57;;
57567;SDS011;43403;51.948;5.922;2023-11-21T04:34:09;30.17;;;14.35;;
57567;SDS011;43403;51.948;5.922;2023-11-21T04:36:35;22.17;;;13.43;;
57567;SDS011;43403;51.948;5.922;2023-11-21T04:39:01;29.52;;;14.40;;
57567;SDS011;43403;51.948;5.922;2023-11-21T04:41:28;39.03;;;15.45;;
57567;SDS011;43403;51.948;5.922;2023-11-21T04:43:54;27.88;;;14.52;;
57567;SDS011;43403;51.948;5.922;2023-11-21T04:46:21;27.00;;;14.98;;
57567;SDS011;43403;51.948;5.922;2023-11-21T04:48:48;22.42;;;12.98;;
57567;SDS011;43403;51.948;5.922;2023-11-21T04:51:14;27.42;;;14.32;;
57567;SDS011;43403;51.948;5.922;2023-11-21T04:53:40;25.20;;;13.27;;
57567;SDS011;43403;51.948;5.922;2023-11-21T04:56:07;23.73;;;14.05;;
57567;SDS011;43403;51.948;5.922;2023-11-21T04:58:33;24.83;;;13.75;;
57567;SDS011;43403;51.948;5.922;2023-11-21T05:01:00;21.90;;;13.02;;
57567;SDS011;43403;51.948;5.922;2023-11-21T05:03:27;20.48;;;12.77;;
57567;SDS011;43403;51.948;5.922;2023-11-21T05:05:56;21.08;;;13.30;;
57567;SDS011;43403;51.948;5.922;2023-11-21T05:08:22;21.80;;;12.30;;
57567;SDS011;43403;51.948;5.922;2023-11-21T05:10:48;25.13;;;13.75;;
57567;SDS011;43403;51.948;5.922;2023-11-21T05:13:16;25.23;;;14.55;;
57567;SDS011;43403;51.948;5.922;2023-11-21T05:15:44;21.77;;;13.63;;
57567;SDS011;43403;51.948;5.922;2023-11-21T05:18:10;25.48;;;13.63;;
57567;SDS011;43403;51.948;5.922;2023-11-21T05:20:37;23.20;;;13.52;;
57567;SDS011;43403;51.948;5.922;2023-11-21T05:23:05;24.02;;;13.02;;
57567;SDS011;43403;51.948;5.922;2023-11-21T05:25:32;25.15;;;14.18;;
57567;SDS011;43403;51.948;5.922;2023-11-21T05:27:58;22.92;;;13.27;;
57567;SDS011;43403;51.948;5.922;2023-11-21T05:32:54;21.55;;;12.98;;
57567;SDS011;43403;51.948;5.922;2023-11-21T05:35:20;18.95;;;12.07;;
57567;SDS011;43403;51.948;5.922;2023-11-21T05:37:47;22.20;;;13.57;;
57567;SDS011;43403;51.948;5.922;2023-11-21T05:40:14;23.58;;;13.55;;
57567;SDS011;43403;51.948;5.922;2023-11-21T05:42:40;20.48;;;12.88;;
57567;SDS011;43403;51.948;5.922;2023-11-21T05:45:07;22.88;;;12.90;;
57567;SDS011;43403;51.948;5.922;2023-11-21T05:47:41;21.42;;;12.27;;
57567;SDS011;43403;51.948;5.922;2023-11-21T05:50:08;22.63;;;14.65;;
57567;SDS011;43403;51.948;5.922;2023-11-21T05:52:41;23.00;;;12.95;;
57567;SDS011;43403;51.948;5.922;2023-11-21T05:55:08;23.02;;;13.57;;
57567;SDS011;43403;51.948;5.922;2023-11-21T05:57:34;22.33;;;13.63;;
57567;SDS011;43403;51.948;5.922;2023-11-21T06:00:08;21.85;;;13.02;;
57567;SDS011;43403;51.948;5.922;2023-11-21T06:02:38;20.90;;;12.93;;
57567;SDS011;43403;51.948;5.922;2023-11-21T06:05:05;19.98;;;12.63;;
57567;SDS011;43403;51.948;5.922;2023-11-21T06:07:32;21.73;;;12.88;;
57567;SDS011;43403;51.948;5.922;2023-11-21T06:09:59;23.02;;;14.02;;
57567;SDS011;43403;51.948;5.922;2023-11-21T06:12:25;21.48;;;12.63;;
57567;SDS011;43403;51.948;5.922;2023-11-21T06:14:51;23.63;;;14.32;;
57567;SDS011;43403;51.948;5.922;2023-11-21T06:17:18;26.02;;;14.90;;
57567;SDS011;43403;51.948;5.922;2023-11-21T06:19:44;25.33;;;14.20;;
57567;SDS011;43403;51.948;5.922;2023-11-21T06:22:12;27.90;;;15.40;;
57567;SDS011;43403;51.948;5.922;2023-11-21T06:24:38;26.08;;;15.82;;
57567;SDS011;43403;51.948;5.922;2023-11-21T06:27:04;23.70;;;13.73;;
57567;SDS011;43403;51.948;5.922;2023-11-21T06:29:31;23.38;;;14.18;;
57567;SDS011;43403;51.948;5.922;2023-11-21T06:31:58;25.00;;;13.85;;
57567;SDS011;43403;51.948;5.922;2023-11-21T06:34:24;25.60;;;14.15;;
57567;SDS011;43403;51.948;5.922;2023-11-21T06:36:51;23.80;;;13.63;;
57567;SDS011;43403;51.948;5.922;2023-11-21T06:39:17;23.75;;;14.25;;
57567;SDS011;43403;51.948;5.922;2023-11-21T06:41:44;25.35;;;14.05;;
57567;SDS011;43403;51.948;5.922;2023-11-21T06:44:10;22.33;;;13.45;;
57567;SDS011;43403;51.948;5.922;2023-11-21T06:46:36;27.63;;;14.88;;
57567;SDS011;43403;51.948;5.922;2023-11-21T06:49:05;22.98;;;13.80;;
57567;SDS011;43403;51.948;5.922;2023-11-21T06:51:32;23.08;;;14.77;;
57567;SDS011;43403;51.948;5.922;2023-11-21T06:53:59;19.63;;;12.30;;
57567;SDS011;43403;51.948;5.922;2023-11-21T06:56:25;21.20;;;14.43;;
57567;SDS011;43403;51.948;5.922;2023-11-21T06:58:51;25.92;;;14.40;;
57567;SDS011;43403;51.948;5.922;2023-11-21T07:01:21;23.58;;;14.57;;
57567;SDS011;43403;51.948;5.922;2023-11-21T07:03:47;23.05;;;14.43;;
57567;SDS011;43403;51.948;5.922;2023-11-21T07:06:14;23.10;;;14.15;;
57567;SDS011;43403;51.948;5.922;2023-11-21T07:11:08;25.40;;;14.82;;
57567;SDS011;43403;51.948;5.922;2023-11-21T07:13:35;31.02;;;16.05;;
